Time;durP1;ratioP1;P1;durP2;ratioP2;P2;SDS_P1;SDS_P2;PMS_P1;PMS_P2;Temp;Humidity;BMP_temperature;BMP_pressure;BME280_temperature;BME280_humidity;BME280_pressure;Samples;Min_cycle;Max_cycle;Signal;HPM_P1;HPM_P2
2022/06/11 00:00:45;;;;;;;1999.90;999.90;;;15.80;99.90;;;;;;5057432;28;20555;-68
2022/06/11 00:03:12;;;;;;;1999.90;999.90;;;15.60;99.90;;;;;;5057050;28;20492;-68
2022/06/11 00:05:40;;;;;;;1999.90;999.90;;;15.60;99.90;;;;;;5067374;28;20468;-68
2022/06/11 00:08:07;;;;;;;1999.90;999.90;;;15.80;99.90;;;;;;5056931;28;20532;-68
2022/06/11 00:10:34;;;;;;;1999.90;999.90;;;15.80;99.90;;;;;;5084982;22;20501;-70
2022/06/11 00:13:01;;;;;;;1999.90;999.90;;;15.80;99.90;;;;;;5054605;28;20466;-68
2022/06/11 00:15:28;;;;;;;1999.90;999.90;;;15.70;99.90;;;;;;5053702;28;21036;-70
2022/06/11 00:17:56;;;;;;;1999.90;999.90;;;16.00;99.90;;;;;;5049422;28;20817;-71
2022/06/11 00:20:24;;;;;;;1999.90;999.90;;;16.20;99.90;;;;;;5038681;28;20483;-69
2022/06/11 00:22:52;;;;;;;1999.90;999.90;;;16.40;99.90;;;;;;5032448;28;20491;-67
2022/06/11 00:25:20;;;;;;;1999.90;999.90;;;16.50;99.90;;;;;;5031090;28;20470;-70
2022/06/11 00:27:48;;;;;;;1999.90;999.90;;;16.30;99.90;;;;;;5032342;28;20521;-69
2022/06/11 00:30:18;;;;;;;1999.90;999.90;;;16.50;99.90;;;;;;5032132;28;20490;-70
2022/06/11 00:32:46;;;;;;;1999.90;999.90;;;16.40;99.90;;;;;;5031778;28;20485;-70
2022/06/11 00:35:15;;;;;;;1999.90;999.90;;;16.50;99.90;;;;;;5035730;28;20470;-69
2022/06/11 00:37:42;;;;;;;1999.90;999.90;;;16.50;99.90;;;;;;5036317;28;20467;-70
2022/06/11 00:40:16;;;;;;;1999.90;999.90;;;16.60;99.90;;;;;;5031558;28;20483;-69
2022/06/11 00:42:43;;;;;;;1999.90;999.90;;;16.80;99.90;;;;;;5036022;28;20524;-70
2022/06/11 00:45:21;;;;;;;1999.90;999.90;;;16.80;99.90;;;;;;5030006;28;20507;-69
2022/06/11 00:47:52;;;;;;;1999.90;999.90;;;16.70;99.90;;;;;;5035723;28;20462;-69
2022/06/11 00:50:23;;;;;;;1999.90;999.90;;;16.70;99.90;;;;;;5034644;28;21032;-70
2022/06/11 00:52:51;;;;;;;1999.90;999.90;;;16.80;99.90;;;;;;5031172;28;20485;-69
2022/06/11 00:55:23;;;;;;;1999.90;999.90;;;16.80;99.90;;;;;;5031317;28;20459;-70
2022/06/11 00:57:53;;;;;;;1999.90;999.90;;;16.90;99.90;;;;;;5027838;28;20521;-70
2022/06/11 01:00:23;;;;;;;1999.90;999.90;;;16.90;99.90;;;;;;5032341;28;20491;-70
2022/06/11 01:02:50;;;;;;;1999.90;999.90;;;16.80;99.90;;;;;;5051862;28;20910;-70
2022/06/11 01:05:22;;;;;;;1999.90;999.90;;;16.90;99.90;;;;;;5037454;28;20467;-69
2022/06/11 01:08:18;;;;;;;1999.90;999.90;;;16.90;99.90;;;;;;5031900;28;20466;-70
2022/06/11 01:11:20;;;;;;;1999.90;999.90;;;16.90;99.90;;;;;;5029518;28;20491;-70
2022/06/11 01:13:57;;;;;;;1999.90;999.90;;;17.10;99.90;;;;;;5040039;28;20962;-70
2022/06/11 01:16:34;;;;;;;1999.90;999.90;;;17.20;99.90;;;;;;5037480;28;20478;-70
2022/06/11 01:19:19;;;;;;;1999.90;999.90;;;17.40;99.90;;;;;;5029153;28;20513;-69
2022/06/11 01:21:55;;;;;;;1999.90;999.90;;;17.20;99.90;;;;;;5035534;28;20477;-69
2022/06/11 01:24:41;;;;;;;1999.90;999.90;;;17.30;99.90;;;;;;5033623;28;21007;-70
2022/06/11 01:27:40;;;;;;;1999.90;999.90;;;17.20;99.90;;;;;;5028877;28;20470;-70
2022/06/11 01:30:10;;;;;;;1999.90;999.90;;;17.20;99.90;;;;;;5030177;28;20485;-70
2022/06/11 01:32:56;;;;;;;1999.90;999.90;;;17.30;99.90;;;;;;5032715;28;20508;-70
2022/06/11 01:35:50;;;;;;;1999.90;999.90;;;17.10;99.90;;;;;;5031480;28;20463;-70
2022/06/11 01:38:24;;;;;;;1999.90;999.90;;;17.10;99.90;;;;;;5028888;28;20467;-70
2022/06/11 01:40:57;;;;;;;1999.90;999.90;;;17.10;99.90;;;;;;5038461;28;21010;-69
2022/06/11 01:43:32;;;;;;;1999.90;999.90;;;17.00;99.90;;;;;;5038289;28;20475;-70
2022/06/11 01:46:02;;;;;;;1999.90;999.90;;;17.20;99.90;;;;;;5032255;28;20516;-70
2022/06/11 01:48:29;;;;;;;1999.90;999.90;;;17.20;99.90;;;;;;5030496;28;21504;-70
2022/06/11 01:51:13;;;;;;;1999.90;999.90;;;17.00;99.90;;;;;;5036375;28;21013;-70
2022/06/11 01:54:06;;;;;;;1999.90;999.90;;;17.00;99.90;;;;;;5029277;28;20524;-70
2022/06/11 01:56:52;;;;;;;1999.90;999.90;;;17.00;99.90;;;;;;5015155;28;20459;-70
2022/06/11 01:59:43;;;;;;;1999.90;999.90;;;17.10;99.90;;;;;;5034071;28;20459;-69
2022/06/11 02:02:30;;;;;;;1999.90;999.90;;;17.40;99.90;;;;;;5028924;28;20549;-68
2022/06/11 02:05:05;;;;;;;1999.90;999.90;;;17.10;99.90;;;;;;5032499;28;20520;-70
2022/06/11 02:07:41;;;;;;;1999.90;999.90;;;17.30;99.90;;;;;;5030829;28;20462;-69
2022/06/11 02:10:13;;;;;;;1999.90;999.90;;;17.30;99.90;;;;;;5030389;28;20494;-67
2022/06/11 02:12:43;;;;;;;1999.90;999.90;;;17.40;99.90;;;;;;5030665;28;20463;-71
2022/06/11 02:15:14;;;;;;;1999.90;999.90;;;17.50;99.90;;;;;;5028602;28;20474;-68
2022/06/11 02:17:45;;;;;;;1999.90;999.90;;;17.50;99.90;;;;;;5030697;28;20471;-70
2022/06/11 02:20:15;;;;;;;1999.90;999.90;;;17.50;99.90;;;;;;5029420;28;21006;-69
2022/06/11 02:22:46;;;;;;;1999.90;999.90;;;17.50;99.90;;;;;;5037211;28;20462;-70
2022/06/11 02:25:17;;;;;;;1999.90;999.90;;;17.60;99.90;;;;;;5030503;28;20498;-69
2022/06/11 02:27:46;;;;;;;1999.90;999.90;;;17.50;99.90;;;;;;5028445;28;20466;-70
2022/06/11 02:30:17;;;;;;;1999.90;999.90;;;17.50;99.90;;;;;;5031872;28;20509;-70
2022/06/11 02:32:45;;;;;;;1999.90;999.90;;;17.50;99.90;;;;;;5035417;28;20521;-70
2022/06/11 02:35:15;;;;;;;1999.90;999.90;;;17.50;99.90;;;;;;5028629;28;20946;-69
2022/06/11 02:37:44;;;;;;;1999.90;999.90;;;17.40;99.90;;;;;;5027476;28;20471;-69
2022/06/11 02:40:17;;;;;;;1999.90;999.90;;;17.20;99.90;;;;;;5029389;28;20475;-69
2022/06/11 02:42:45;;;;;;;1999.90;999.90;;;17.10;99.90;;;;;;5031088;28;20451;-70
2022/06/11 02:45:13;;;;;;;1999.90;999.90;;;17.00;99.90;;;;;;5032018;28;20486;-68
2022/06/11 02:47:40;;;;;;;1999.90;999.90;;;16.80;99.90;;;;;;5025497;28;20467;-70
2022/06/11 02:50:13;;;;;;;1999.90;999.90;;;16.80;99.90;;;;;;5027376;28;20514;-70
2022/06/11 02:52:39;;;;;;;1999.90;999.90;;;16.90;99.90;;;;;;5027503;28;20467;-70
2022/06/11 02:55:07;;;;;;;1999.90;999.90;;;16.90;99.90;;;;;;5030378;28;20467;-70
2022/06/11 02:57:34;;;;;;;1999.90;999.90;;;16.90;99.90;;;;;;5028026;28;20469;-69
2022/06/11 03:00:01;;;;;;;1999.90;999.90;;;16.80;99.90;;;;;;5031575;28;20966;-69
2022/06/11 03:02:28;;;;;;;1999.90;999.90;;;16.70;99.90;;;;;;5026684;28;20918;-69
2022/06/11 03:04:56;;;;;;;1999.90;999.90;;;16.80;99.90;;;;;;5028511;28;20495;-70
2022/06/11 03:07:25;;;;;;;1999.90;999.90;;;16.90;99.90;;;;;;5027203;28;20463;-70
2022/06/11 03:09:51;;;;;;;1999.90;999.90;;;17.00;99.90;;;;;;5032381;28;20486;-70
2022/06/11 03:12:18;;;;;;;1999.90;999.90;;;16.90;99.90;;;;;;5027712;28;20462;-69
2022/06/11 03:14:45;;;;;;;1999.90;999.90;;;16.80;99.90;;;;;;5027510;28;21020;-69
2022/06/11 03:17:14;;;;;;;1999.90;999.90;;;16.90;99.90;;;;;;5027385;28;20459;-70
2022/06/11 03:19:41;;;;;;;1999.90;999.90;;;16.90;99.90;;;;;;5030695;28;20533;-70
2022/06/11 03:22:08;;;;;;;1999.90;999.90;;;16.90;99.90;;;;;;5028165;28;20525;-70
2022/06/11 03:24:37;;;;;;;1999.90;999.90;;;16.90;99.90;;;;;;5026645;28;21020;-69
2022/06/11 03:27:05;;;;;;;1999.90;999.90;;;17.10;99.90;;;;;;5028113;28;20519;-70
2022/06/11 03:29:32;;;;;;;1999.90;999.90;;;17.20;99.90;;;;;;5027013;28;20553;-70
2022/06/11 03:31:58;;;;;;;1999.90;999.90;;;17.20;99.90;;;;;;5029517;28;20463;-70
2022/06/11 03:34:25;;;;;;;1999.90;999.90;;;17.40;99.90;;;;;;5026463;28;20509;-69
2022/06/11 03:36:53;;;;;;;1999.90;999.90;;;17.20;99.90;;;;;;5032980;28;20483;-69
2022/06/11 03:39:20;;;;;;;1999.90;999.90;;;17.20;99.90;;;;;;5032095;28;20952;-69
2022/06/11 03:41:49;;;;;;;1999.90;999.90;;;17.30;99.90;;;;;;5036535;28;20463;-70
2022/06/11 03:44:16;;;;;;;1999.90;999.90;;;17.40;99.90;;;;;;5035511;28;20492;-68
2022/06/11 03:46:43;;;;;;;1999.90;999.90;;;17.40;99.90;;;;;;5031302;28;20954;-70
2022/06/11 03:49:10;;;;;;;1999.90;999.90;;;17.60;99.90;;;;;;5029239;28;20892;-70
2022/06/11 03:51:37;;;;;;;1999.90;999.90;;;17.80;99.90;;;;;;5032065;28;21032;-70
2022/06/11 03:54:04;;;;;;;1999.90;999.90;;;17.80;99.90;;;;;;5035839;28;20455;-70
2022/06/11 03:56:31;;;;;;;1999.90;999.90;;;17.80;99.90;;;;;;5035136;28;21015;-69
2022/06/11 03:58:59;;;;;;;1999.90;999.90;;;17.90;99.90;;;;;;5032436;28;20454;-70
2022/06/11 04:01:28;;;;;;;1999.90;999.90;;;18.00;99.90;;;;;;5035625;28;20462;-69
2022/06/11 04:03:58;;;;;;;1999.90;999.90;;;18.30;99.90;;;;;;5037804;28;20533;-70
2022/06/11 04:06:28;;;;;;;1999.90;999.90;;;18.30;99.90;;;;;;5034015;28;20888;-69
2022/06/11 04:08:55;;;;;;;1999.90;999.90;;;18.40;99.90;;;;;;5033333;28;20493;-70
2022/06/11 04:11:22;;;;;;;1999.90;999.90;;;18.50;99.90;;;;;;5031191;28;20902;-70
2022/06/11 04:13:50;;;;;;;1999.90;999.90;;;18.50;99.90;;;;;;5035807;28;20485;-70
2022/06/11 04:16:24;;;;;;;1999.90;999.90;;;18.50;99.90;;;;;;5032956;28;20524;-67
2022/06/11 04:18:52;;;;;;;1999.90;999.90;;;18.50;99.90;;;;;;5034714;28;20490;-70
2022/06/11 04:21:19;;;;;;;1999.90;999.90;;;18.50;99.90;;;;;;5032738;28;20479;-70
2022/06/11 04:23:48;;;;;;;1999.90;999.90;;;18.70;99.90;;;;;;5034154;28;20521;-70
2022/06/11 04:26:18;;;;;;;1999.90;999.90;;;18.60;99.90;;;;;;5033184;28;20458;-67
2022/06/11 04:28:44;;;;;;;1999.90;999.90;;;18.60;99.90;;;;;;5031640;28;21039;-70
2022/06/11 04:31:14;;;;;;;1999.90;999.90;;;18.60;99.90;;;;;;5038622;28;21068;-70
2022/06/11 04:33:42;;;;;;;1999.90;999.90;;;18.50;99.90;;;;;;5032585;28;20475;-70
2022/06/11 04:36:10;;;;;;;1999.90;999.90;;;18.70;99.90;;;;;;5034955;28;20459;-70
2022/06/11 04:38:38;;;;;;;1999.90;999.90;;;19.10;99.90;;;;;;5032314;28;20467;-70
2022/06/11 04:41:05;;;;;;;1999.90;999.90;;;19.00;99.90;;;;;;5036156;28;20571;-69
2022/06/11 04:43:32;;;;;;;1999.90;999.90;;;18.90;99.90;;;;;;5033078;28;20517;-70
2022/06/11 04:45:59;;;;;;;1999.90;999.90;;;19.00;99.90;;;;;;5035002;28;20490;-70
2022/06/11 04:48:25;;;;;;;1999.90;999.90;;;19.10;99.90;;;;;;5032607;28;20963;-70
2022/06/11 04:50:54;;;;;;;1999.90;999.90;;;19.20;99.90;;;;;;5031554;28;21044;-71
2022/06/11 04:53:20;;;;;;;1999.90;999.90;;;19.30;99.90;;;;;;5032641;28;20517;-69
2022/06/11 04:55:47;;;;;;;1999.90;999.90;;;19.10;99.90;;;;;;5033277;28;20463;-69
2022/06/11 04:58:14;;;;;;;1999.90;999.90;;;19.10;99.90;;;;;;5035411;28;20860;-69
2022/06/11 05:00:41;;;;;;;1999.90;999.90;;;19.20;99.90;;;;;;5041892;28;20542;-70
2022/06/11 05:03:07;;;;;;;1999.90;999.90;;;19.40;99.90;;;;;;5049384;28;20520;-69
2022/06/11 05:05:34;;;;;;;1999.90;999.90;;;19.40;99.90;;;;;;5037690;28;20478;-70
2022/06/11 05:08:02;;;;;;;1999.90;999.90;;;19.50;99.90;;;;;;5032804;28;20467;-70
2022/06/11 05:10:31;;;;;;;1999.90;999.90;;;19.40;99.90;;;;;;5030797;28;20636;-70
2022/06/11 05:12:58;;;;;;;1999.90;999.90;;;19.80;99.90;;;;;;5036762;28;20505;-70
2022/06/11 05:15:25;;;;;;;1999.90;999.90;;;20.00;99.90;;;;;;5032872;28;20477;-69
2022/06/11 05:17:52;;;;;;;1999.90;999.90;;;20.20;99.90;;;;;;5031670;28;20520;-69
2022/06/11 05:20:19;;;;;;;1999.90;999.90;;;20.50;99.90;;;;;;5032034;28;20483;-66
2022/06/11 05:22:46;;;;;;;1999.90;999.90;;;20.70;99.90;;;;;;5033566;28;20471;-70
2022/06/11 05:25:17;;;;;;;1999.90;999.90;;;20.90;99.90;;;;;;5031700;28;20491;-70
2022/06/11 05:27:46;;;;;;;1999.90;999.90;;;20.60;99.90;;;;;;5032478;28;20463;-70
2022/06/11 05:30:18;;;;;;;1999.90;999.90;;;20.70;99.90;;;;;;5032697;28;20571;-69
2022/06/11 05:32:45;;;;;;;1999.90;999.90;;;20.80;99.90;;;;;;5038360;28;20459;-70
2022/06/11 05:35:16;;;;;;;1999.90;999.90;;;21.40;99.90;;;;;;5029638;28;20884;-69
2022/06/11 05:37:43;;;;;;;1999.90;999.90;;;22.00;99.90;;;;;;5032724;28;20471;-70
2022/06/11 05:40:11;;;;;;;1999.90;999.90;;;22.60;99.90;;;;;;5030028;28;20909;-70
2022/06/11 05:42:39;;;;;;;1999.90;999.90;;;23.10;99.90;;;;;;5031905;28;20508;-70
2022/06/11 05:45:07;;;;;;;1999.90;999.90;;;23.30;99.90;;;;;;5032563;28;20479;-70
2022/06/11 05:47:34;;;;;;;1999.90;999.90;;;23.40;99.90;;;;;;5033999;28;20466;-69
2022/06/11 05:50:02;;;;;;;1999.90;999.90;;;23.80;99.90;;;;;;5029913;28;20487;-70
2022/06/11 05:52:33;;;;;;;1999.90;999.90;;;24.40;99.90;;;;;;5034955;28;20518;-70
2022/06/11 05:55:00;;;;;;;1999.90;999.90;;;24.50;99.40;;;;;;5033897;28;20459;-70
2022/06/11 05:57:28;;;;;;;1999.90;999.90;;;24.60;99.20;;;;;;5032601;28;20459;-69
2022/06/11 06:00:01;;;;;;;1999.90;999.90;;;24.50;99.10;;;;;;5034722;28;20486;-70
2022/06/11 06:02:28;;;;;;;1999.90;999.90;;;24.10;99.80;;;;;;5033443;28;20516;-69
2022/06/11 06:04:55;;;;;;;1999.90;999.90;;;24.00;99.60;;;;;;5032555;28;20479;-70
2022/06/11 06:07:22;;;;;;;1999.90;999.90;;;23.80;99.90;;;;;;5033882;28;20475;-70
2022/06/11 06:12:18;;;;;;;1999.90;999.90;;;23.40;99.90;;;;;;5108735;22;20496;-69
2022/06/11 06:14:45;;;;;;;1999.90;999.90;;;23.30;99.90;;;;;;5086880;28;20460;-69
2022/06/11 06:17:13;;;;;;;1999.90;999.90;;;23.50;99.90;;;;;;5083713;28;20535;-69
2022/06/11 06:19:40;;;;;;;1999.90;999.90;;;23.00;99.90;;;;;;5078840;28;21841;-70
2022/06/11 06:22:06;;;;;;;1999.90;999.90;;;23.00;99.90;;;;;;5067703;28;20532;-69
2022/06/11 06:24:33;;;;;;;1999.90;999.90;;;23.00;99.90;;;;;;5059678;28;20450;-68
2022/06/11 06:27:01;;;;;;;1999.90;999.90;;;23.20;99.90;;;;;;5065539;28;20465;-68
2022/06/11 06:29:28;;;;;;;1999.90;999.90;;;22.90;99.90;;;;;;5067017;28;20506;-68
2022/06/11 06:31:54;;;;;;;1999.90;999.90;;;23.10;99.90;;;;;;5065995;28;20489;-69
2022/06/11 06:34:22;;;;;;;1999.90;999.90;;;23.20;99.90;;;;;;5066577;28;20514;-67
2022/06/11 06:36:49;;;;;;;1999.90;999.90;;;23.30;99.90;;;;;;5063067;28;20515;-69
2022/06/11 06:39:15;;;;;;;1999.90;999.90;;;23.40;99.90;;;;;;5067646;28;21151;-68
2022/06/11 06:41:42;;;;;;;1999.90;999.90;;;23.60;99.90;;;;;;5062004;28;22248;-68
2022/06/11 06:44:09;;;;;;;1999.90;999.90;;;23.70;99.90;;;;;;5066355;28;20461;-69
2022/06/11 06:46:35;;;;;;;1999.90;999.90;;;23.60;99.90;;;;;;5065665;28;20534;-69
2022/06/11 06:49:02;;;;;;;1999.90;999.90;;;23.50;99.90;;;;;;5066155;28;20461;-69
2022/06/11 06:51:30;;;;;;;1999.90;999.90;;;23.60;99.90;;;;;;5065961;28;20543;-68
2022/06/11 06:53:58;;;;;;;1999.90;999.90;;;23.40;99.90;;;;;;5066868;28;20453;-68
2022/06/11 06:56:29;;;;;;;1999.90;999.90;;;23.10;99.90;;;;;;5066112;28;20472;-69
2022/06/11 06:58:57;;;;;;;1999.90;999.90;;;23.00;99.90;;;;;;5064626;28;20464;-69
2022/06/11 07:01:24;;;;;;;1999.90;999.90;;;22.90;99.90;;;;;;5067123;28;20481;-67
2022/06/11 07:03:50;;;;;;;1999.90;999.90;;;22.90;99.90;;;;;;5063185;28;20507;-69
2022/06/11 07:06:17;;;;;;;1999.90;999.90;;;23.00;99.90;;;;;;5062618;28;21000;-69
2022/06/11 07:08:45;;;;;;;1999.90;999.90;;;22.90;99.90;;;;;;5065004;28;20518;-69
2022/06/11 07:11:12;;;;;;;1999.90;999.90;;;23.10;99.90;;;;;;5064687;28;20481;-67
2022/06/11 07:13:38;;;;;;;1999.90;999.90;;;23.20;99.90;;;;;;5061902;28;20953;-68
2022/06/11 07:16:07;;;;;;;1999.90;999.90;;;23.10;99.90;;;;;;5064890;28;20453;-69
2022/06/11 07:18:37;;;;;;;1999.90;999.90;;;22.90;99.90;;;;;;5066308;28;20457;-69
2022/06/11 07:21:07;;;;;;;1999.90;999.90;;;23.00;99.90;;;;;;5063614;28;20469;-67
2022/06/11 07:23:37;;;;;;;1999.90;999.90;;;23.30;99.90;;;;;;5062371;28;20457;-68
2022/06/11 07:26:12;;;;;;;1999.90;999.90;;;22.80;99.90;;;;;;5064033;28;20536;-66
2022/06/11 07:28:43;;;;;;;1999.90;999.90;;;22.80;99.90;;;;;;5064861;28;20817;-68
2022/06/11 07:31:10;;;;;;;1999.90;999.90;;;22.80;99.90;;;;;;5068104;28;20926;-67
2022/06/11 07:33:37;;;;;;;1999.90;999.90;;;22.40;99.90;;;;;;5064704;28;20485;-66
2022/06/11 07:36:06;;;;;;;1999.90;999.90;;;22.50;99.90;;;;;;5064573;28;20511;-66
2022/06/11 07:38:32;;;;;;;1999.90;999.90;;;22.70;99.90;;;;;;5065365;28;20471;-67
2022/06/11 07:40:59;;;;;;;1999.90;999.90;;;22.60;99.90;;;;;;5065425;28;20485;-66
2022/06/11 07:43:27;;;;;;;1999.90;999.90;;;23.10;99.90;;;;;;5066045;28;20469;-67
2022/06/11 07:45:54;;;;;;;1999.90;999.90;;;22.70;99.90;;;;;;5061068;28;20511;-66
2022/06/11 07:48:21;;;;;;;1999.90;999.90;;;22.50;99.90;;;;;;5064987;28;20466;-68
2022/06/11 07:50:50;;;;;;;1999.90;999.90;;;22.70;99.90;;;;;;5061249;28;21000;-68
2022/06/11 07:53:17;;;;;;;1999.90;999.90;;;22.90;99.90;;;;;;5062513;28;20462;-67
2022/06/11 07:55:46;;;;;;;1999.90;999.90;;;23.00;99.90;;;;;;5062108;28;20598;-67
2022/06/11 07:58:15;;;;;;;1999.90;999.90;;;23.10;99.90;;;;;;5063230;28;21156;-69
2022/06/11 08:00:45;;;;;;;1999.90;999.90;;;23.00;99.90;;;;;;5061037;28;20477;-68
2022/06/11 08:03:12;;;;;;;1999.90;999.90;;;23.20;99.90;;;;;;5061891;28;20825;-67
2022/06/11 08:05:41;;;;;;;1999.90;999.90;;;23.10;99.90;;;;;;5064404;28;20534;-68
2022/06/11 08:08:09;;;;;;;1999.90;999.90;;;23.00;99.90;;;;;;5066879;28;20896;-68
2022/06/11 08:10:37;;;;;;;1999.90;999.90;;;23.00;99.90;;;;;;5063924;28;20542;-69
2022/06/11 08:13:05;;;;;;;1999.90;999.90;;;22.90;99.90;;;;;;5065539;28;20457;-70
2022/06/11 08:15:32;;;;;;;1999.90;999.90;;;22.90;99.90;;;;;;5064323;28;20586;-69
2022/06/11 08:18:00;;;;;;;1999.90;999.90;;;22.90;99.90;;;;;;5061830;28;20949;-69
2022/06/11 08:20:29;;;;;;;1999.90;999.90;;;22.90;99.90;;;;;;5064967;28;21074;-68
2022/06/11 08:22:56;;;;;;;1999.90;999.90;;;23.00;99.90;;;;;;5060436;28;20937;-69
2022/06/11 08:25:23;;;;;;;1999.90;999.90;;;23.40;99.90;;;;;;5068082;28;20515;-70
2022/06/11 08:27:51;;;;;;;1999.90;999.90;;;23.10;99.90;;;;;;5068070;28;20588;-68
2022/06/11 08:30:20;;;;;;;1999.90;999.90;;;23.20;99.90;;;;;;5067551;28;20481;-69
2022/06/11 08:32:47;;;;;;;1999.90;999.90;;;23.20;99.90;;;;;;5067488;28;20523;-69
2022/06/11 08:35:18;;;;;;;1999.90;999.90;;;23.20;99.90;;;;;;5066832;28;20826;-69
2022/06/11 08:37:45;;;;;;;1999.90;999.90;;;23.20;99.90;;;;;;5068069;28;20457;-69
2022/06/11 08:40:17;;;;;;;1999.90;999.90;;;23.50;99.90;;;;;;5068923;28;21094;-69
2022/06/11 08:42:46;;;;;;;1999.90;999.90;;;23.60;99.90;;;;;;5067144;28;20461;-69
2022/06/11 08:45:17;;;;;;;1999.90;999.90;;;23.80;99.90;;;;;;5067461;28;20458;-70
2022/06/11 08:47:49;;;;;;;1999.90;999.90;;;24.20;99.90;;;;;;5066932;28;20523;-69
2022/06/11 08:50:20;;;;;;;1999.90;999.90;;;23.60;99.90;;;;;;5070066;28;20517;-69
2022/06/11 08:52:47;;;;;;;1999.90;999.90;;;23.90;99.90;;;;;;5067663;28;20465;-69
2022/06/11 08:55:14;;;;;;;1999.90;999.90;;;23.90;99.90;;;;;;5069988;28;20882;-69
2022/06/11 08:57:55;;;;;;;1999.90;999.90;;;24.10;99.90;;;;;;5067436;28;20465;-69
2022/06/11 09:00:28;;;;;;;1999.90;999.90;;;24.00;99.90;;;;;;5066914;28;20489;-69
2022/06/11 09:03:11;;;;;;;1999.90;999.90;;;24.10;99.90;;;;;;5068432;28;20987;-68
2022/06/11 09:06:16;;;;;;;1999.90;999.90;;;24.30;99.90;;;;;;5070691;28;20533;-68
2022/06/11 09:08:56;;;;;;;1999.90;999.90;;;24.30;99.90;;;;;;5066961;28;20805;-69
2022/06/11 09:11:36;;;;;;;1999.90;999.90;;;24.50;99.50;;;;;;5067994;28;20875;-70
2022/06/11 09:14:34;;;;;;;1999.90;999.90;;;24.40;98.60;;;;;;5066317;28;20462;-69
2022/06/11 09:17:19;;;;;;;1999.90;999.90;;;24.80;98.30;;;;;;5064598;28;20462;-69
2022/06/11 09:20:07;;;;;;;1999.90;999.90;;;25.20;97.60;;;;;;5064321;28;20457;-69
2022/06/11 09:22:52;;;;;;;1999.90;999.90;;;25.20;95.60;;;;;;5068128;28;20450;-69
2022/06/11 09:25:30;;;;;;;1999.90;999.90;;;25.30;94.90;;;;;;5066155;28;20461;-69
2022/06/11 09:28:01;;;;;;;1999.90;999.90;;;25.50;95.20;;;;;;5067680;28;20453;-69
2022/06/11 09:30:34;;;;;;;1999.90;999.90;;;25.70;94.90;;;;;;5067338;28;20481;-70
2022/06/11 09:33:07;;;;;;;1999.90;999.90;;;25.50;93.60;;;;;;5067479;28;20471;-69
2022/06/11 09:35:39;;;;;;;1999.90;999.90;;;25.50;93.30;;;;;;5066880;28;20485;-68
2022/06/11 09:38:15;;;;;;;1999.90;999.90;;;25.50;93.40;;;;;;5065065;28;20471;-70
2022/06/11 09:40:44;;;;;;;1999.90;999.90;;;25.50;93.50;;;;;;5063938;28;20543;-69
2022/06/11 09:43:26;;;;;;;1999.90;999.90;;;25.70;93.90;;;;;;5067653;28;20462;-70
2022/06/11 09:46:00;;;;;;;1999.90;999.90;;;25.90;92.90;;;;;;5063354;28;21114;-69
2022/06/11 09:48:38;;;;;;;1999.90;999.90;;;26.00;92.30;;;;;;5067197;28;20952;-69
2022/06/11 09:51:15;;;;;;;1999.90;999.90;;;26.00;91.60;;;;;;5066004;28;20485;-69
2022/06/11 09:53:57;;;;;;;1999.90;999.90;;;25.70;92.50;;;;;;5065408;28;20457;-69
2022/06/11 09:56:31;;;;;;;1999.90;999.90;;;25.50;93.30;;;;;;5066646;28;20457;-69
2022/06/11 09:59:06;;;;;;;1999.90;999.90;;;25.70;93.30;;;;;;5064180;28;21563;-69
2022/06/11 10:01:41;;;;;;;1999.90;999.90;;;26.20;92.00;;;;;;5066935;28;20537;-70
2022/06/11 10:04:11;;;;;;;1999.90;999.90;;;26.50;90.60;;;;;;5062922;28;20453;-69
2022/06/11 10:06:42;;;;;;;1999.90;999.90;;;26.40;91.00;;;;;;5065298;28;20515;-69
2022/06/11 10:09:17;;;;;;;1999.90;999.90;;;26.00;91.80;;;;;;5064289;28;20449;-69
2022/06/11 10:11:48;;;;;;;1999.90;999.90;;;26.20;91.60;;;;;;5064836;28;20916;-69
2022/06/11 10:14:30;;;;;;;1999.90;999.90;;;26.10;91.40;;;;;;5063383;28;20535;-69
2022/06/11 10:17:03;;;;;;;1999.90;999.90;;;26.50;91.00;;;;;;5065546;28;20476;-69
2022/06/11 10:19:38;;;;;;;1999.90;999.90;;;26.80;90.90;;;;;;5068424;28;20453;-69
2022/06/11 10:22:12;;;;;;;1999.90;999.90;;;26.90;90.60;;;;;;5065384;28;20517;-69
2022/06/11 10:24:48;;;;;;;1999.90;999.90;;;26.70;90.50;;;;;;5062716;28;20519;-68
2022/06/11 10:27:18;;;;;;;1999.90;999.90;;;26.20;91.00;;;;;;5064931;28;20887;-68
2022/06/11 10:29:48;;;;;;;1999.90;999.90;;;25.70;90.30;;;;;;5067170;28;20483;-69
2022/06/11 10:32:20;;;;;;;1999.90;999.90;;;25.80;90.90;;;;;;5069247;28;20980;-69
2022/06/11 10:34:53;;;;;;;1999.90;999.90;;;25.80;91.30;;;;;;5072148;28;20835;-69
2022/06/11 10:37:26;;;;;;;1999.90;999.90;;;25.60;92.10;;;;;;5068746;28;20458;-68
2022/06/11 10:40:01;;;;;;;1999.90;999.90;;;25.50;92.80;;;;;;5066544;28;20519;-69
2022/06/11 10:42:35;;;;;;;1999.90;999.90;;;25.30;93.10;;;;;;5063586;28;20456;-69
2022/06/11 10:45:03;;;;;;;1999.90;999.90;;;25.10;93.50;;;;;;5063078;28;20466;-68
2022/06/11 10:47:35;;;;;;;1999.90;999.90;;;25.10;93.40;;;;;;5067622;28;20526;-67
2022/06/11 10:50:11;;;;;;;1999.90;999.90;;;25.00;93.70;;;;;;5065994;28;21018;-69
2022/06/11 10:52:44;;;;;;;1999.90;999.90;;;25.50;93.80;;;;;;5064811;28;20481;-66
2022/06/11 10:55:18;;;;;;;1999.90;999.90;;;25.40;93.40;;;;;;5066307;28;20527;-69
2022/06/11 10:57:49;;;;;;;1999.90;999.90;;;25.70;93.90;;;;;;5064270;28;20488;-69
2022/06/11 11:00:20;;;;;;;1999.90;999.90;;;25.70;93.10;;;;;;5067100;28;20485;-69
2022/06/11 11:02:50;;;;;;;1999.90;999.90;;;25.70;93.30;;;;;;5064054;28;20996;-69
2022/06/11 11:05:19;;;;;;;1999.90;999.90;;;25.50;93.80;;;;;;5066324;28;20980;-69
2022/06/11 11:07:56;;;;;;;1999.90;999.90;;;25.50;93.70;;;;;;5066422;28;20507;-68
2022/06/11 11:10:41;;;;;;;1999.90;999.90;;;25.40;93.70;;;;;;5064818;28;20492;-68
2022/06/11 11:13:16;;;;;;;1999.90;999.90;;;25.40;93.90;;;;;;5065297;28;20461;-69
2022/06/11 11:15:52;;;;;;;1999.90;999.90;;;25.50;94.00;;;;;;5063975;28;20522;-69
2022/06/11 11:18:22;;;;;;;1999.90;999.90;;;25.70;93.30;;;;;;5066978;28;20957;-69
2022/06/11 11:20:51;;;;;;;1999.90;999.90;;;25.80;93.10;;;;;;5066669;28;20474;-71
2022/06/11 11:23:22;;;;;;;1999.90;999.90;;;25.70;93.70;;;;;;5065975;28;20539;-68
2022/06/11 11:25:53;;;;;;;1999.90;999.90;;;25.80;92.80;;;;;;5065729;28;20953;-69
2022/06/11 11:28:25;;;;;;;1999.90;999.90;;;25.90;92.40;;;;;;5067269;28;20973;-69
2022/06/11 11:31:03;;;;;;;1999.90;999.90;;;25.70;92.30;;;;;;5064403;28;20546;-69
2022/06/11 11:33:32;;;;;;;1999.90;999.90;;;25.70;92.30;;;;;;5064163;28;20511;-69
2022/06/11 11:36:12;;;;;;;1999.90;999.90;;;25.80;92.30;;;;;;5065786;28;20515;-69
2022/06/11 11:38:40;;;;;;;1999.90;999.90;;;25.90;92.60;;;;;;5066376;28;20461;-69
2022/06/11 11:41:22;;;;;;;1999.90;999.90;;;25.90;92.80;;;;;;5063956;28;21004;-69
2022/06/11 11:43:49;;;;;;;1999.90;999.90;;;25.70;93.40;;;;;;5061184;28;20461;-69
2022/06/11 11:46:21;;;;;;;1999.90;999.90;;;25.90;93.20;;;;;;5062593;28;20493;-69
2022/06/11 11:48:52;;;;;;;1999.90;999.90;;;26.10;93.00;;;;;;5063041;28;21163;-69
2022/06/11 11:51:24;;;;;;;1999.90;999.90;;;26.20;92.30;;;;;;5064220;28;20477;-69
2022/06/11 11:53:54;;;;;;;1999.90;999.90;;;26.00;92.80;;;;;;5064133;28;20457;-69
2022/06/11 11:56:28;;;;;;;1999.90;999.90;;;25.60;93.40;;;;;;5066624;28;20457;-69
2022/06/11 11:58:58;;;;;;;1999.90;999.90;;;25.80;93.00;;;;;;5064173;28;20510;-69
2022/06/11 12:01:27;;;;;;;1999.90;999.90;;;25.90;92.10;;;;;;5070687;28;20531;-69
2022/06/11 12:04:03;;;;;;;1999.90;999.90;;;25.80;92.00;;;;;;5069018;28;20457;-68
2022/06/11 12:06:34;;;;;;;1999.90;999.90;;;25.70;92.80;;;;;;5070142;28;20667;-68
2022/06/11 12:09:02;;;;;;;1999.90;999.90;;;25.90;93.20;;;;;;5067838;28;20466;-69
2022/06/11 12:11:36;;;;;;;1999.90;999.90;;;26.10;93.50;;;;;;5069699;28;20509;-69
2022/06/11 12:14:11;;;;;;;1999.90;999.90;;;26.10;92.80;;;;;;5068619;28;20453;-68
2022/06/11 12:16:41;;;;;;;1999.90;999.90;;;25.90;93.30;;;;;;5067687;28;20475;-69
2022/06/11 12:19:15;;;;;;;1999.90;999.90;;;25.70;94.00;;;;;;5069467;28;20515;-69